WetterOnline ( https://www.wetteronline.de )

Wetter aktuell Bad Schmiedeberg

Aktuelles Wetter: Wittenberg (106m)

6-stündlich | Neueste Meldungen
Ortszeit Temperatur Wetter
Mo, 24.06. 20:00 28.1° C leicht bewölkt
Mo, 24.06. 14:00 27.5° C fast wolkenlos
Mo, 24.06. 8:00 20.1° C leicht bewölkt
Mo, 24.06. 2:00 18.9° C wolkenlos
So, 23.06. 20:00 26.2° C wolkenlos
So, 23.06. 14:00 25.8° C leicht bewölkt
So, 23.06. 8:00 18.5° C leicht bewölkt
So, 23.06. 2:00 17.4° C leicht bewölkt
Ortszeit Temperatur Wetter
Mo, 24.06. 21:00 25.7° C leicht bewölkt
Mo, 24.06. 20:50 25.7° C leicht bewölkt
Mo, 24.06. 20:40 26.4° C fast wolkenlos
Mo, 24.06. 20:30 27.2° C leicht bewölkt
Mo, 24.06. 20:20 27.2° C leicht bewölkt
Mo, 24.06. 20:10 27.5° C wolkig
Mo, 24.06. 20:00 28.1° C leicht bewölkt
Mo, 24.06. 19:30 28.7° C leicht bewölkt
Mo, 24.06. 19:00 28.3° C wolkenlos
Mo, 24.06. 18:30 29.0° C leicht bewölkt
Mo, 24.06. 18:00 29.1° C leicht bewölkt
Ortszeit Relative Feuchte Sichtweite
Mo, 24.06. 20:00 24% 50 km
Mo, 24.06. 14:00 26% 50 km
Mo, 24.06. 8:00 55% 60 km
Mo, 24.06. 2:00 67% 55 km
So, 23.06. 20:00 32% >70 km
So, 23.06. 14:00 32% 65 km
So, 23.06. 8:00 57% >70 km
So, 23.06. 2:00 68% 50 km
Ortszeit Relative Feuchte Sichtweite
Mo, 24.06. 21:00 31% 60 km
Mo, 24.06. 20:50 31% -
Mo, 24.06. 20:40 28% -
Mo, 24.06. 20:30 26% 55 km
Mo, 24.06. 20:20 26% -
Mo, 24.06. 20:10 26% -
Mo, 24.06. 20:00 24% 50 km
Mo, 24.06. 19:30 23% >70 km
Mo, 24.06. 19:00 22% >70 km
Mo, 24.06. 18:30 20% 55 km
Mo, 24.06. 18:00 20% 55 km
Ortszeit Niederschlagsmenge Niederschlagsart
Mo, 24.06. 20:00 0.0 l/m2 in 12 Std. -
Mo, 24.06. 14:00 0.0 l/m2 in 6 Std. -
Mo, 24.06. 8:00 0.0 l/m2 in 12 Std. -
Mo, 24.06. 2:00 0.0 l/m2 in 6 Std. -
So, 23.06. 20:00 0.0 l/m2 in 12 Std. -
So, 23.06. 14:00 0.0 l/m2 in 6 Std. -
So, 23.06. 8:00 0.0 l/m2 in 12 Std. -
So, 23.06. 2:00 0.0 l/m2 in 6 Std. -
Ortszeit Niederschlagsmenge Niederschlagsart
Mo, 24.06. 21:00 0.0 l/m2 in 1 Std. -
Mo, 24.06. 20:50 keine Meldung -
Mo, 24.06. 20:40 keine Meldung -
Mo, 24.06. 20:30 0.0 l/m2 in 1 Std. -
Mo, 24.06. 20:20 keine Meldung -
Mo, 24.06. 20:10 keine Meldung -
Mo, 24.06. 20:00 0.0 l/m2 in 1 Std. -
Mo, 24.06. 19:30 0.0 l/m2 in 1 Std. -
Mo, 24.06. 19:00 0.0 l/m2 in 1 Std. -
Mo, 24.06. 18:30 0.0 l/m2 in 1 Std. -
Mo, 24.06. 18:00 0.0 l/m2 in 1 Std. -
Ortszeit Stärke Spitze Richtung
km/h Bft. km/h Grad Sektor
Mo, 24.06. 20:00 7 2 29 80° O
Mo, 24.06. 14:00 13 3 30 50° NO
Mo, 24.06. 8:00 9 2 22 120° SO
Mo, 24.06. 2:00 13 3 30 50° NO
So, 23.06. 20:00 9 2 31 60° NO
So, 23.06. 14:00 13 3 41 50° NO
So, 23.06. 8:00 9 2 30 70° O
So, 23.06. 2:00 17 3 33 40° NO
Ortszeit Stärke Spitze Richtung
km/h Bft. km/h Grad Sektor
Mo, 24.06. 21:00 7 2 18 50° NO
Mo, 24.06. 20:50 7 2 - 50° NO
Mo, 24.06. 20:40 7 2 - 60° NO
Mo, 24.06. 20:30 9 2 17 70° O
Mo, 24.06. 20:20 9 2 - 70° O
Mo, 24.06. 20:10 11 2 - 70° O
Mo, 24.06. 20:00 7 2 25 80° O
Mo, 24.06. 19:30 11 2 25 90° O
Mo, 24.06. 19:00 7 2 22 90° O
Mo, 24.06. 18:30 11 2 22 110° O
Mo, 24.06. 18:00 11 2 25 100° O
Ortszeit Untergrenze Bedeckung Gattung
total tief tief mittel hoch
Mo, 24.06. 20:00 10500 m 8/8 0/8 - - -
Mo, 24.06. 14:00 12000 m 2/8 0/8 - - -
Mo, 24.06. 8:00 10500 m 4/8 0/8 - - -
Mo, 24.06. 2:00 - 0/8 0/8 - - -
So, 23.06. 20:00 - 0/8 0/8 - - -
So, 23.06. 14:00 2100 m 2/8 2/8 - - -
So, 23.06. 8:00 9000 m 6/8 0/8 - - -
So, 23.06. 2:00 10500 m 3/8 0/8 - - -
Ortszeit Bedeckungsgrad in Achtel und Wolkenuntergrenze
Mo, 24.06. 21:00 1(10500m) 5(12000m)
Mo, 24.06. 20:50 1(10500m) 5(12000m)
Mo, 24.06. 20:40 2(10500m)
Mo, 24.06. 20:30 4(9000m) 5(10500m)
Mo, 24.06. 20:20 4(9000m) 5(10500m)
Mo, 24.06. 20:10 7(9000m) 7(10500m)
Mo, 24.06. 20:00 4(10500m) 8(10500m) 8(10500m)
Mo, 24.06. 19:30 5(10500m)
Mo, 24.06. 19:00 keine Wolken
Mo, 24.06. 18:30 5(12000m)
Mo, 24.06. 18:00 5(12000m)
Ortszeit Luftdruck NN (hPa) Tendenz (hPa in 3 Std.)
Mo, 24.06. 20:00 1022 - 0,5
Mo, 24.06. 14:00 1023 - 0,6
Mo, 24.06. 8:00 1024 + 0,9
Mo, 24.06. 2:00 1023 + 0,9
So, 23.06. 20:00 1020 - 0,4
So, 23.06. 14:00 1021 - 0,5
So, 23.06. 8:00 1022 + 0,7
So, 23.06. 2:00 1021 + 0,8
Ortszeit Luftdruck NN (hPa) Tendenz (hPa in 3 Std.)
Mo, 24.06. 21:00 1022 - 0,2
Mo, 24.06. 20:50 1022 keine Meldung
Mo, 24.06. 20:40 1022 keine Meldung
Mo, 24.06. 20:30 1022 - 0,3
Mo, 24.06. 20:20 1022 keine Meldung
Mo, 24.06. 20:10 1022 keine Meldung
Mo, 24.06. 20:00 1022 - 0,5
Mo, 24.06. 19:30 1022 - 0,7
Mo, 24.06. 19:00 1022 - 0,9
Mo, 24.06. 18:30 1022 - 0,8
Mo, 24.06. 18:00 1022 - 0,6
Ortszeit Schneehöhe (cm)
Mo, 24.06. 20:00 -
Mo, 24.06. 14:00 -
Mo, 24.06. 8:00 -
Mo, 24.06. 2:00 -
So, 23.06. 20:00 -
So, 23.06. 14:00 -
So, 23.06. 8:00 -
So, 23.06. 2:00 -
Ortszeit Schneehöhe (cm)
Mo, 24.06. 21:00 -
Mo, 24.06. 20:50 -
Mo, 24.06. 20:40 -
Mo, 24.06. 20:30 -
Mo, 24.06. 20:20 -
Mo, 24.06. 20:10 -
Mo, 24.06. 20:00 -
Mo, 24.06. 19:30 -
Mo, 24.06. 19:00 -
Mo, 24.06. 18:30 -
Mo, 24.06. 18:00 -
Link zu dieser Seite / Seite empfehlen

Das Wetter in ...